sensor_id;sensor_type;location;lat;lon;timestamp;temperature;humidity
35305;DHT22;26433;48.034;-1.764;2023-06-10T00:03:30;22.10;94.40
35305;DHT22;26433;48.034;-1.764;2023-06-10T00:08:36;22.10;94.40
35305;DHT22;26433;48.034;-1.764;2023-06-10T00:13:42;22.10;94.50
35305;DHT22;26433;48.034;-1.764;2023-06-10T00:18:45;22.00;94.50
35305;DHT22;26433;48.034;-1.764;2023-06-10T00:23:50;22.00;94.70
35305;DHT22;26433;48.034;-1.764;2023-06-10T00:28:54;22.00;94.80
35305;DHT22;26433;48.034;-1.764;2023-06-10T00:33:58;22.00;94.70
35305;DHT22;26433;48.034;-1.764;2023-06-10T00:39:03;21.90;95.00
35305;DHT22;26433;48.034;-1.764;2023-06-10T00:44:07;21.80;95.50
35305;DHT22;26433;48.034;-1.764;2023-06-10T00:54:16;21.80;95.60
35305;DHT22;26433;48.034;-1.764;2023-06-10T00:59:21;21.90;95.70
35305;DHT22;26433;48.034;-1.764;2023-06-10T01:04:25;21.90;95.60
35305;DHT22;26433;48.034;-1.764;2023-06-10T01:09:36;21.90;95.50
35305;DHT22;26433;48.034;-1.764;2023-06-10T01:14:43;21.90;95.50
35305;DHT22;26433;48.034;-1.764;2023-06-10T01:19:53;21.70;96.10
35305;DHT22;26433;48.034;-1.764;2023-06-10T01:24:59;21.60;96.80
35305;DHT22;26433;48.034;-1.764;2023-06-10T01:30:10;21.60;97.00
35305;DHT22;26433;48.034;-1.764;2023-06-10T01:35:15;21.60;97.10
35305;DHT22;26433;48.034;-1.764;2023-06-10T01:40:22;21.60;97.00
35305;DHT22;26433;48.034;-1.764;2023-06-10T01:45:27;21.60;96.90
35305;DHT22;26433;48.034;-1.764;2023-06-10T01:50:31;21.70;96.80
35305;DHT22;26433;48.034;-1.764;2023-06-10T01:55:36;21.70;96.80
35305;DHT22;26433;48.034;-1.764;2023-06-10T02:00:40;21.70;96.80
35305;DHT22;26433;48.034;-1.764;2023-06-10T02:05:44;21.70;96.80
35305;DHT22;26433;48.034;-1.764;2023-06-10T02:10:49;21.70;96.80
35305;DHT22;26433;48.034;-1.764;2023-06-10T02:15:52;21.70;97.00
35305;DHT22;26433;48.034;-1.764;2023-06-10T02:20:56;21.70;97.00
35305;DHT22;26433;48.034;-1.764;2023-06-10T02:26:02;21.60;96.80
35305;DHT22;26433;48.034;-1.764;2023-06-10T02:31:05;21.50;97.00
35305;DHT22;26433;48.034;-1.764;2023-06-10T02:36:10;21.50;97.30
35305;DHT22;26433;48.034;-1.764;2023-06-10T02:41:17;21.50;97.30
35305;DHT22;26433;48.034;-1.764;2023-06-10T02:46:21;21.40;97.70
35305;DHT22;26433;48.034;-1.764;2023-06-10T02:51:27;21.20;98.50
35305;DHT22;26433;48.034;-1.764;2023-06-10T02:56:33;21.10;99.10
35305;DHT22;26433;48.034;-1.764;2023-06-10T03:01:38;21.20;99.00
35305;DHT22;26433;48.034;-1.764;2023-06-10T03:06:42;21.30;98.50
35305;DHT22;26433;48.034;-1.764;2023-06-10T03:11:50;21.30;98.60
35305;DHT22;26433;48.034;-1.764;2023-06-10T03:16:54;21.20;98.90
35305;DHT22;26433;48.034;-1.764;2023-06-10T03:22:07;21.20;99.30
35305;DHT22;26433;48.034;-1.764;2023-06-10T03:27:14;21.20;99.40
35305;DHT22;26433;48.034;-1.764;2023-06-10T03:32:18;21.20;99.00
35305;DHT22;26433;48.034;-1.764;2023-06-10T03:37:22;21.20;99.40
35305;DHT22;26433;48.034;-1.764;2023-06-10T03:42:27;21.20;99.40
35305;DHT22;26433;48.034;-1.764;2023-06-10T03:47:33;21.20;99.70
35305;DHT22;26433;48.034;-1.764;2023-06-10T03:52:39;21.20;99.60
35305;DHT22;26433;48.034;-1.764;2023-06-10T03:57:45;21.30;99.60
35305;DHT22;26433;48.034;-1.764;2023-06-10T04:02:48;21.30;99.60
35305;DHT22;26433;48.034;-1.764;2023-06-10T04:07:54;21.30;99.40
35305;DHT22;26433;48.034;-1.764;2023-06-10T04:13:00;21.30;99.40
35305;DHT22;26433;48.034;-1.764;2023-06-10T04:18:06;21.30;99.70
35305;DHT22;26433;48.034;-1.764;2023-06-10T04:23:11;21.30;99.60
35305;DHT22;26433;48.034;-1.764;2023-06-10T04:28:17;21.30;99.60
35305;DHT22;26433;48.034;-1.764;2023-06-10T04:33:20;21.30;99.70
35305;DHT22;26433;48.034;-1.764;2023-06-10T04:38:25;21.30;99.70
35305;DHT22;26433;48.034;-1.764;2023-06-10T04:43:30;21.20;99.80
35305;DHT22;26433;48.034;-1.764;2023-06-10T04:48:34;21.20;99.90
35305;DHT22;26433;48.034;-1.764;2023-06-10T04:53:39;21.10;99.90
35305;DHT22;26433;48.034;-1.764;2023-06-10T04:58:44;21.10;99.90
35305;DHT22;26433;48.034;-1.764;2023-06-10T05:03:48;21.10;99.90
35305;DHT22;26433;48.034;-1.764;2023-06-10T05:08:51;21.10;99.90
35305;DHT22;26433;48.034;-1.764;2023-06-10T05:13:56;21.10;99.90
35305;DHT22;26433;48.034;-1.764;2023-06-10T05:19:00;21.10;99.90
35305;DHT22;26433;48.034;-1.764;2023-06-10T05:24:07;21.20;99.90
35305;DHT22;26433;48.034;-1.764;2023-06-10T05:29:12;21.30;99.80
35305;DHT22;26433;48.034;-1.764;2023-06-10T05:34:17;21.40;99.70
35305;DHT22;26433;48.034;-1.764;2023-06-10T05:39:21;21.40;99.40
35305;DHT22;26433;48.034;-1.764;2023-06-10T05:44:26;21.50;99.60
35305;DHT22;26433;48.034;-1.764;2023-06-10T05:49:29;21.40;99.90
35305;DHT22;26433;48.034;-1.764;2023-06-10T05:54:33;21.40;99.90
35305;DHT22;26433;48.034;-1.764;2023-06-10T05:59:38;21.40;99.90
35305;DHT22;26433;48.034;-1.764;2023-06-10T06:04:42;21.50;99.90
35305;DHT22;26433;48.034;-1.764;2023-06-10T06:09:45;21.60;99.90
35305;DHT22;26433;48.034;-1.764;2023-06-10T06:14:50;21.60;99.90
35305;DHT22;26433;48.034;-1.764;2023-06-10T06:19:54;21.70;99.90
35305;DHT22;26433;48.034;-1.764;2023-06-10T06:24:58;21.70;99.90
35305;DHT22;26433;48.034;-1.764;2023-06-10T06:30:04;21.90;99.90
35305;DHT22;26433;48.034;-1.764;2023-06-10T06:35:08;21.90;99.50
35305;DHT22;26433;48.034;-1.764;2023-06-10T06:40:13;21.90;99.90
35305;DHT22;26433;48.034;-1.764;2023-06-10T06:45:18;21.80;99.90
35305;DHT22;26433;48.034;-1.764;2023-06-10T06:50:22;21.70;99.90
35305;DHT22;26433;48.034;-1.764;2023-06-10T06:55:25;21.80;99.90
35305;DHT22;26433;48.034;-1.764;2023-06-10T07:00:30;21.90;99.90
35305;DHT22;26433;48.034;-1.764;2023-06-10T07:05:34;22.10;99.90
35305;DHT22;26433;48.034;-1.764;2023-06-10T07:10:38;22.20;99.90
35305;DHT22;26433;48.034;-1.764;2023-06-10T07:15:43;22.40;99.60
35305;DHT22;26433;48.034;-1.764;2023-06-10T07:20:47;22.40;99.30
35305;DHT22;26433;48.034;-1.764;2023-06-10T07:25:53;22.50;99.40
35305;DHT22;26433;48.034;-1.764;2023-06-10T07:30:58;22.50;99.30
35305;DHT22;26433;48.034;-1.764;2023-06-10T07:36:02;22.70;99.10
35305;DHT22;26433;48.034;-1.764;2023-06-10T07:41:06;22.80;98.90
35305;DHT22;26433;48.034;-1.764;2023-06-10T07:46:11;23.10;98.30
35305;DHT22;26433;48.034;-1.764;2023-06-10T07:51:15;23.30;97.70
35305;DHT22;26433;48.034;-1.764;2023-06-10T07:56:19;23.30;97.70
35305;DHT22;26433;48.034;-1.764;2023-06-10T08:01:25;23.50;97.60
35305;DHT22;26433;48.034;-1.764;2023-06-10T08:06:29;23.60;97.20
35305;DHT22;26433;48.034;-1.764;2023-06-10T08:11:32;23.80;96.80
35305;DHT22;26433;48.034;-1.764;2023-06-10T08:16:37;24.00;96.30
35305;DHT22;26433;48.034;-1.764;2023-06-10T08:21:41;24.10;95.90
35305;DHT22;26433;48.034;-1.764;2023-06-10T08:26:45;24.30;95.60
35305;DHT22;26433;48.034;-1.764;2023-06-10T08:31:50;24.40;95.00
35305;DHT22;26433;48.034;-1.764;2023-06-10T08:36:54;24.50;94.70
35305;DHT22;26433;48.034;-1.764;2023-06-10T08:42:07;24.40;95.00
35305;DHT22;26433;48.034;-1.764;2023-06-10T08:47:15;24.40;94.90
35305;DHT22;26433;48.034;-1.764;2023-06-10T08:52:20;24.40;95.00
35305;DHT22;26433;48.034;-1.764;2023-06-10T08:57:25;24.40;95.00
35305;DHT22;26433;48.034;-1.764;2023-06-10T09:02:31;24.40;94.90
35305;DHT22;26433;48.034;-1.764;2023-06-10T09:07:37;24.30;94.90
35305;DHT22;26433;48.034;-1.764;2023-06-10T09:12:41;24.30;94.90
35305;DHT22;26433;48.034;-1.764;2023-06-10T09:17:46;24.30;95.20
35305;DHT22;26433;48.034;-1.764;2023-06-10T09:22:50;24.30;94.90
35305;DHT22;26433;48.034;-1.764;2023-06-10T09:27:54;24.40;94.70
35305;DHT22;26433;48.034;-1.764;2023-06-10T09:33:02;24.40;94.40
35305;DHT22;26433;48.034;-1.764;2023-06-10T09:38:06;24.50;94.20
35305;DHT22;26433;48.034;-1.764;2023-06-10T09:43:12;24.60;93.90
35305;DHT22;26433;48.034;-1.764;2023-06-10T09:48:17;24.70;93.40
35305;DHT22;26433;48.034;-1.764;2023-06-10T09:53:21;25.00;92.70
35305;DHT22;26433;48.034;-1.764;2023-06-10T09:58:34;25.10;92.30
35305;DHT22;26433;48.034;-1.764;2023-06-10T10:03:50;25.10;92.40
35305;DHT22;26433;48.034;-1.764;2023-06-10T10:08:54;25.10;92.50
35305;DHT22;26433;48.034;-1.764;2023-06-10T10:13:58;25.00;92.80
35305;DHT22;26433;48.034;-1.764;2023-06-10T10:19:07;24.70;93.70
35305;DHT22;26433;48.034;-1.764;2023-06-10T10:24:15;24.50;94.40
35305;DHT22;26433;48.034;-1.764;2023-06-10T10:29:24;24.30;95.20
35305;DHT22;26433;48.034;-1.764;2023-06-10T10:34:36;24.10;96.30
35305;DHT22;26433;48.034;-1.764;2023-06-10T10:39:40;24.10;96.70
35305;DHT22;26433;48.034;-1.764;2023-06-10T10:44:44;24.20;96.60
35305;DHT22;26433;48.034;-1.764;2023-06-10T10:49:51;24.50;95.90
35305;DHT22;26433;48.034;-1.764;2023-06-10T10:54:56;24.90;94.30
35305;DHT22;26433;48.034;-1.764;2023-06-10T10:59:59;25.80;94.00
35305;DHT22;26433;48.034;-1.764;2023-06-10T11:05:07;26.10;92.40
35305;DHT22;26433;48.034;-1.764;2023-06-10T11:10:12;26.40;91.60
35305;DHT22;26433;48.034;-1.764;2023-06-10T11:15:19;26.60;91.20
35305;DHT22;26433;48.034;-1.764;2023-06-10T11:20:43;27.20;90.30
35305;DHT22;26433;48.034;-1.764;2023-06-10T11:25:46;27.80;87.10
35305;DHT22;26433;48.034;-1.764;2023-06-10T11:30:57;27.80;86.40
35305;DHT22;26433;48.034;-1.764;2023-06-10T11:36:06;27.60;88.40
35305;DHT22;26433;48.034;-1.764;2023-06-10T11:41:11;27.70;90.10
35305;DHT22;26433;48.034;-1.764;2023-06-10T11:46:15;28.40;87.80
35305;DHT22;26433;48.034;-1.764;2023-06-10T11:51:20;29.20;84.40
35305;DHT22;26433;48.034;-1.764;2023-06-10T11:56:25;30.00;81.10
35305;DHT22;26433;48.034;-1.764;2023-06-10T12:01:30;30.40;78.70
35305;DHT22;26433;48.034;-1.764;2023-06-10T12:06:45;30.50;77.20
35305;DHT22;26433;48.034;-1.764;2023-06-10T12:11:52;30.10;78.50
35305;DHT22;26433;48.034;-1.764;2023-06-10T12:16:56;29.80;79.40
35305;DHT22;26433;48.034;-1.764;2023-06-10T12:22:03;29.30;80.70
35305;DHT22;26433;48.034;-1.764;2023-06-10T12:27:11;28.90;82.00
35305;DHT22;26433;48.034;-1.764;2023-06-10T12:32:15;28.30;84.00
35305;DHT22;26433;48.034;-1.764;2023-06-10T12:37:20;28.00;85.10
35305;DHT22;26433;48.034;-1.764;2023-06-10T12:42:24;27.60;86.40
35305;DHT22;26433;48.034;-1.764;2023-06-10T12:47:31;27.10;87.80
35305;DHT22;26433;48.034;-1.764;2023-06-10T12:52:39;26.90;88.70
35305;DHT22;26433;48.034;-1.764;2023-06-10T12:57:52;26.70;89.30
35305;DHT22;26433;48.034;-1.764;2023-06-10T13:02:56;26.60;90.00
35305;DHT22;26433;48.034;-1.764;2023-06-10T13:08:02;26.80;88.80
35305;DHT22;26433;48.034;-1.764;2023-06-10T13:13:06;26.90;87.40
35305;DHT22;26433;48.034;-1.764;2023-06-10T13:18:12;27.10;86.90
35305;DHT22;26433;48.034;-1.764;2023-06-10T13:23:17;27.70;85.50
35305;DHT22;26433;48.034;-1.764;2023-06-10T13:28:21;28.40;82.50
35305;DHT22;26433;48.034;-1.764;2023-06-10T13:33:24;29.10;79.70
35305;DHT22;26433;48.034;-1.764;2023-06-10T13:38:29;29.10;79.20
35305;DHT22;26433;48.034;-1.764;2023-06-10T13:43:33;29.20;79.60
35305;DHT22;26433;48.034;-1.764;2023-06-10T13:48:36;29.50;78.40
35305;DHT22;26433;48.034;-1.764;2023-06-10T13:53:41;30.00;77.20
35305;DHT22;26433;48.034;-1.764;2023-06-10T13:58:45;30.20;76.40
35305;DHT22;26433;48.034;-1.764;2023-06-10T14:03:49;30.40;75.40
35305;DHT22;26433;48.034;-1.764;2023-06-10T14:08:54;30.50;75.00
35305;DHT22;26433;48.034;-1.764;2023-06-10T14:13:58;30.50;74.90
35305;DHT22;26433;48.034;-1.764;2023-06-10T14:19:03;30.50;75.00
35305;DHT22;26433;48.034;-1.764;2023-06-10T14:24:08;30.20;75.80
35305;DHT22;26433;48.034;-1.764;2023-06-10T14:29:12;29.80;76.40
35305;DHT22;26433;48.034;-1.764;2023-06-10T14:34:16;29.20;78.00
35305;DHT22;26433;48.034;-1.764;2023-06-10T14:39:21;28.70;79.80
35305;DHT22;26433;48.034;-1.764;2023-06-10T14:44:25;28.50;79.70
35305;DHT22;26433;48.034;-1.764;2023-06-10T14:49:28;28.50;79.70
35305;DHT22;26433;48.034;-1.764;2023-06-10T14:54:33;28.70;78.50
35305;DHT22;26433;48.034;-1.764;2023-06-10T14:59:37;28.80;77.50
35305;DHT22;26433;48.034;-1.764;2023-06-10T15:04:41;28.60;77.50
35305;DHT22;26433;48.034;-1.764;2023-06-10T15:09:46;28.50;77.50
35305;DHT22;26433;48.034;-1.764;2023-06-10T15:14:50;28.50;77.40
35305;DHT22;26433;48.034;-1.764;2023-06-10T15:19:54;28.60;77.10
35305;DHT22;26433;48.034;-1.764;2023-06-10T15:24:59;28.80;76.00
35305;DHT22;26433;48.034;-1.764;2023-06-10T15:30:04;28.80;75.60
35305;DHT22;26433;48.034;-1.764;2023-06-10T15:35:08;28.50;76.10
35305;DHT22;26433;48.034;-1.764;2023-06-10T15:40:14;28.30;77.00
35305;DHT22;26433;48.034;-1.764;2023-06-10T15:45:17;28.00;77.50
35305;DHT22;26433;48.034;-1.764;2023-06-10T15:50:21;27.80;78.30
35305;DHT22;26433;48.034;-1.764;2023-06-10T15:55:26;27.80;77.60
35305;DHT22;26433;48.034;-1.764;2023-06-10T16:00:31;27.90;77.00
35305;DHT22;26433;48.034;-1.764;2023-06-10T16:05:35;27.90;77.00
35305;DHT22;26433;48.034;-1.764;2023-06-10T16:10:40;27.90;76.60
35305;DHT22;26433;48.034;-1.764;2023-06-10T16:15:43;27.90;76.40
35305;DHT22;26433;48.034;-1.764;2023-06-10T16:20:47;27.80;76.00
35305;DHT22;26433;48.034;-1.764;2023-06-10T16:25:52;27.80;76.20
35305;DHT22;26433;48.034;-1.764;2023-06-10T16:30:56;27.60;76.60
35305;DHT22;26433;48.034;-1.764;2023-06-10T16:35:59;27.50;76.40
35305;DHT22;26433;48.034;-1.764;2023-06-10T16:41:04;27.40;76.70
35305;DHT22;26433;48.034;-1.764;2023-06-10T16:46:08;27.30;77.10
35305;DHT22;26433;48.034;-1.764;2023-06-10T16:51:12;27.20;77.40
35305;DHT22;26433;48.034;-1.764;2023-06-10T16:56:17;27.10;77.60
35305;DHT22;26433;48.034;-1.764;2023-06-10T17:01:20;27.00;77.60
35305;DHT22;26433;48.034;-1.764;2023-06-10T17:06:24;26.80;78.00
35305;DHT22;26433;48.034;-1.764;2023-06-10T17:11:29;26.80;78.40
35305;DHT22;26433;48.034;-1.764;2023-06-10T17:16:33;26.70;78.80
35305;DHT22;26433;48.034;-1.764;2023-06-10T17:21:37;26.60;79.30
35305;DHT22;26433;48.034;-1.764;2023-06-10T17:26:42;26.40;80.40
35305;DHT22;26433;48.034;-1.764;2023-06-10T17:31:46;26.20;81.60
35305;DHT22;26433;48.034;-1.764;2023-06-10T17:36:50;25.80;83.70
35305;DHT22;26433;48.034;-1.764;2023-06-10T17:41:55;25.20;86.60
35305;DHT22;26433;48.034;-1.764;2023-06-10T17:46:59;24.90;89.30
35305;DHT22;26433;48.034;-1.764;2023-06-10T17:52:03;24.70;90.50
35305;DHT22;26433;48.034;-1.764;2023-06-10T17:57:08;24.60;91.20
35305;DHT22;26433;48.034;-1.764;2023-06-10T18:02:12;24.50;91.50
35305;DHT22;26433;48.034;-1.764;2023-06-10T18:07:16;24.50;91.80
35305;DHT22;26433;48.034;-1.764;2023-06-10T18:12:21;24.50;91.80
35305;DHT22;26433;48.034;-1.764;2023-06-10T18:17:24;24.40;92.40
35305;DHT22;26433;48.034;-1.764;2023-06-10T18:22:28;24.40;92.60
35305;DHT22;26433;48.034;-1.764;2023-06-10T18:27:34;24.30;93.10
35305;DHT22;26433;48.034;-1.764;2023-06-10T18:32:37;24.30;93.50
35305;DHT22;26433;48.034;-1.764;2023-06-10T18:37:41;24.20;94.00
35305;DHT22;26433;48.034;-1.764;2023-06-10T18:42:46;24.20;94.50
35305;DHT22;26433;48.034;-1.764;2023-06-10T18:47:50;24.20;94.70
35305;DHT22;26433;48.034;-1.764;2023-06-10T18:53:00;24.30;94.90
35305;DHT22;26433;48.034;-1.764;2023-06-10T18:58:05;24.30;95.00
35305;DHT22;26433;48.034;-1.764;2023-06-10T19:03:08;24.20;95.40
35305;DHT22;26433;48.034;-1.764;2023-06-10T19:08:12;24.10;95.80
35305;DHT22;26433;48.034;-1.764;2023-06-10T19:13:17;24.00;96.10
35305;DHT22;26433;48.034;-1.764;2023-06-10T19:18:21;24.00;96.50
35305;DHT22;26433;48.034;-1.764;2023-06-10T19:23:24;23.90;96.90
35305;DHT22;26433;48.034;-1.764;2023-06-10T19:28:29;23.90;96.80
35305;DHT22;26433;48.034;-1.764;2023-06-10T19:33:33;23.80;97.20
35305;DHT22;26433;48.034;-1.764;2023-06-10T19:38:37;23.60;97.70
35305;DHT22;26433;48.034;-1.764;2023-06-10T19:43:43;23.50;98.20
35305;DHT22;26433;48.034;-1.764;2023-06-10T19:48:47;23.30;98.80
35305;DHT22;26433;48.034;-1.764;2023-06-10T19:53:50;23.30;99.40
35305;DHT22;26433;48.034;-1.764;2023-06-10T19:58:55;23.20;99.50
35305;DHT22;26433;48.034;-1.764;2023-06-10T20:03:59;23.20;99.60
35305;DHT22;26433;48.034;-1.764;2023-06-10T20:09:07;23.10;99.80
35305;DHT22;26433;48.034;-1.764;2023-06-10T20:14:12;23.20;99.90
35305;DHT22;26433;48.034;-1.764;2023-06-10T20:19:16;23.10;99.70
35305;DHT22;26433;48.034;-1.764;2023-06-10T20:24:20;23.00;99.90
35305;DHT22;26433;48.034;-1.764;2023-06-10T20:29:25;22.90;99.90
35305;DHT22;26433;48.034;-1.764;2023-06-10T20:34:29;22.80;99.90
35305;DHT22;26433;48.034;-1.764;2023-06-10T20:39:33;22.80;99.90
35305;DHT22;26433;48.034;-1.764;2023-06-10T20:44:38;22.80;99.90
35305;DHT22;26433;48.034;-1.764;2023-06-10T20:49:41;22.70;99.90
35305;DHT22;26433;48.034;-1.764;2023-06-10T20:54:45;22.70;99.90
35305;DHT22;26433;48.034;-1.764;2023-06-10T20:59:50;22.70;99.90
35305;DHT22;26433;48.034;-1.764;2023-06-10T21:04:54;22.60;99.90
35305;DHT22;26433;48.034;-1.764;2023-06-10T21:10:00;22.60;99.90
35305;DHT22;26433;48.034;-1.764;2023-06-10T21:15:06;22.60;99.90
35305;DHT22;26433;48.034;-1.764;2023-06-10T21:20:11;22.60;99.90
35305;DHT22;26433;48.034;-1.764;2023-06-10T21:25:17;22.60;99.90
35305;DHT22;26433;48.034;-1.764;2023-06-10T21:30:22;22.60;99.90
35305;DHT22;26433;48.034;-1.764;2023-06-10T21:35:26;22.50;99.90
35305;DHT22;26433;48.034;-1.764;2023-06-10T21:45:35;22.50;99.90
35305;DHT22;26433;48.034;-1.764;2023-06-10T21:50:39;22.60;99.90
35305;DHT22;26433;48.034;-1.764;2023-06-10T22:02:07;22.20;99.90
35305;DHT22;26433;48.034;-1.764;2023-06-10T22:07:13;23.50;99.90
35305;DHT22;26433;48.034;-1.764;2023-06-10T22:17:22;22.00;99.90
35305;DHT22;26433;48.034;-1.764;2023-06-10T22:22:26;21.90;99.90
35305;DHT22;26433;48.034;-1.764;2023-06-10T22:32:35;21.90;99.90
35305;DHT22;26433;48.034;-1.764;2023-06-10T22:37:39;21.90;99.90
35305;DHT22;26433;48.034;-1.764;2023-06-10T22:42:43;21.80;99.90
35305;DHT22;26433;48.034;-1.764;2023-06-10T22:47:47;21.90;99.90
35305;DHT22;26433;48.034;-1.764;2023-06-10T22:52:52;21.80;99.90
35305;DHT22;26433;48.034;-1.764;2023-06-10T22:57:55;21.90;99.90
35305;DHT22;26433;48.034;-1.764;2023-06-10T23:03:01;21.90;99.90
35305;DHT22;26433;48.034;-1.764;2023-06-10T23:08:04;21.80;99.90
35305;DHT22;26433;48.034;-1.764;2023-06-10T23:13:08;21.80;99.90
35305;DHT22;26433;48.034;-1.764;2023-06-10T23:18:13;21.80;99.90
35305;DHT22;26433;48.034;-1.764;2023-06-10T23:23:16;21.90;99.90
35305;DHT22;26433;48.034;-1.764;2023-06-10T23:28:20;21.80;99.90
35305;DHT22;26433;48.034;-1.764;2023-06-10T23:33:25;21.80;99.90
35305;DHT22;26433;48.034;-1.764;2023-06-10T23:38:30;21.80;99.90
35305;DHT22;26433;48.034;-1.764;2023-06-10T23:43:33;21.80;99.90
35305;DHT22;26433;48.034;-1.764;2023-06-10T23:48:38;21.80;99.90
35305;DHT22;26433;48.034;-1.764;2023-06-10T23:53:42;21.70;99.90
35305;DHT22;26433;48.034;-1.764;2023-06-10T23:58:45;21.70;99.90
